BBP weather

Bembridge Airport
Bembridge, England, United Kingdom

Public forecast

Using degrees Celsius for public forecast. Weather courtesy of forecast.io.

Closest aviation weather report (METAR) to Bembridge Airport

Closest report is Southampton Airport, 18.8 nm (34.9 km) NNW. Retrieved 2019/10/16 10:20 UTC (12 minutes ago):

EGHI 161020Z 24008KT 210V280 9999 FEW020 14/10 Q1003

Closest aviation forecast (TAF) to Bembridge Airport

Forecast is more than 12 hours old.

Closest forecast is Southampton Airport, 18.8 nm (34.9 km) NNW. Retrieved 2016/03/02 12:00 UTC (4 years ago):

TAF EGHI 021104Z 0212/0221 28015G25KT 9999 SCT020 TEMPO 0212/0221 29020G35KT PROB30 TEMPO 0212/0213 4000 SHRA BKN012CB TEMPO 0218/0221 BKN014